sensor_id;sensor_type;location;lat;lon;timestamp;pressure;altitude;pressure_sealevel;temperature;humidity
76827;BME280;65788;52.284;20.890;2023-05-10T00:02:04;101043.67;;;20.89;29.79
76827;BME280;65788;52.284;20.890;2023-05-10T00:04:32;101041.14;;;20.87;29.70
76827;BME280;65788;52.284;20.890;2023-05-10T00:06:59;101039.39;;;20.87;29.83
76827;BME280;65788;52.284;20.890;2023-05-10T00:09:26;101037.70;;;20.83;29.85
76827;BME280;65788;52.284;20.890;2023-05-10T00:11:54;101037.98;;;20.81;29.80
76827;BME280;65788;52.284;20.890;2023-05-10T00:14:21;101036.80;;;20.78;29.86
76827;BME280;65788;52.284;20.890;2023-05-10T00:16:48;101034.41;;;20.75;29.87
76827;BME280;65788;52.284;20.890;2023-05-10T00:19:15;101031.64;;;20.67;30.05
76827;BME280;65788;52.284;20.890;2023-05-10T00:21:41;101026.20;;;20.67;30.06
76827;BME280;65788;52.284;20.890;2023-05-10T00:24:08;101026.48;;;20.66;30.10
76827;BME280;65788;52.284;20.890;2023-05-10T00:26:36;101025.11;;;20.57;30.25
76827;BME280;65788;52.284;20.890;2023-05-10T00:29:02;101023.45;;;20.55;30.27
76827;BME280;65788;52.284;20.890;2023-05-10T00:31:30;101019.73;;;20.53;30.26
76827;BME280;65788;52.284;20.890;2023-05-10T00:33:57;101020.89;;;20.49;30.28
76827;BME280;65788;52.284;20.890;2023-05-10T00:36:23;101019.14;;;20.47;30.33
76827;BME280;65788;52.284;20.890;2023-05-10T00:38:52;101018.83;;;20.45;30.32
76827;BME280;65788;52.284;20.890;2023-05-10T00:41:19;101014.98;;;20.42;30.31
76827;BME280;65788;52.284;20.890;2023-05-10T00:43:47;101014.77;;;20.37;30.36
76827;BME280;65788;52.284;20.890;2023-05-10T00:46:15;101014.30;;;20.32;30.43
76827;BME280;65788;52.284;20.890;2023-05-10T00:48:43;101012.60;;;20.31;30.44
76827;BME280;65788;52.284;20.890;2023-05-10T00:51:10;101011.70;;;20.27;30.53
76827;BME280;65788;52.284;20.890;2023-05-10T00:53:37;101013.67;;;20.26;30.54
76827;BME280;65788;52.284;20.890;2023-05-10T00:56:04;101013.75;;;20.23;30.52
76827;BME280;65788;52.284;20.890;2023-05-10T00:58:32;101017.77;;;20.19;30.54
76827;BME280;65788;52.284;20.890;2023-05-10T01:00:59;101014.52;;;20.16;30.58
76827;BME280;65788;52.284;20.890;2023-05-10T01:03:29;101010.88;;;20.13;30.62
76827;BME280;65788;52.284;20.890;2023-05-10T01:05:57;101007.84;;;20.11;30.65
76827;BME280;65788;52.284;20.890;2023-05-10T01:08:27;101008.19;;;20.08;30.69
76827;BME280;65788;52.284;20.890;2023-05-10T01:10:54;101005.02;;;20.07;30.64
76827;BME280;65788;52.284;20.890;2023-05-10T01:13:34;101006.40;;;20.05;30.65
76827;BME280;65788;52.284;20.890;2023-05-10T01:16:03;101002.46;;;20.01;30.64
76827;BME280;65788;52.284;20.890;2023-05-10T01:18:39;101001.55;;;19.98;30.66
76827;BME280;65788;52.284;20.890;2023-05-10T01:34:35;100998.31;;;19.84;30.73
76827;BME280;65788;52.284;20.890;2023-05-10T01:37:11;100997.70;;;19.83;30.75
76827;BME280;65788;52.284;20.890;2023-05-10T01:39:47;100995.08;;;19.85;30.71
76827;BME280;65788;52.284;20.890;2023-05-10T01:42:17;100997.20;;;19.82;30.75
76827;BME280;65788;52.284;20.890;2023-05-10T01:44:54;100995.67;;;19.78;30.80
76827;BME280;65788;52.284;20.890;2023-05-10T01:47:35;100992.98;;;19.77;30.77
76827;BME280;65788;52.284;20.890;2023-05-10T01:50:04;100991.63;;;19.78;30.76
76827;BME280;65788;52.284;20.890;2023-05-10T01:52:35;100988.84;;;19.73;30.84
76827;BME280;65788;52.284;20.890;2023-05-10T01:55:07;100986.02;;;19.71;30.87
76827;BME280;65788;52.284;20.890;2023-05-10T01:57:35;100982.94;;;19.68;30.92
76827;BME280;65788;52.284;20.890;2023-05-10T02:00:06;100985.41;;;19.71;30.98
76827;BME280;65788;52.284;20.890;2023-05-10T02:02:39;100984.60;;;19.70;30.90
76827;BME280;65788;52.284;20.890;2023-05-10T02:05:07;100981.35;;;19.67;30.93
76827;BME280;65788;52.284;20.890;2023-05-10T02:07:35;100978.90;;;19.67;30.92
76827;BME280;65788;52.284;20.890;2023-05-10T02:10:04;100976.69;;;19.65;30.96
76827;BME280;65788;52.284;20.890;2023-05-10T02:12:32;100978.89;;;19.64;30.96
76827;BME280;65788;52.284;20.890;2023-05-10T02:15:02;100977.15;;;19.63;30.98
76827;BME280;65788;52.284;20.890;2023-05-10T02:17:30;100979.33;;;19.61;31.00
76827;BME280;65788;52.284;20.890;2023-05-10T02:19:58;100978.25;;;19.61;31.00
76827;BME280;65788;52.284;20.890;2023-05-10T02:22:29;100978.42;;;19.60;31.02
76827;BME280;65788;52.284;20.890;2023-05-10T02:24:57;100973.00;;;19.59;30.99
76827;BME280;65788;52.284;20.890;2023-05-10T02:27:25;100974.52;;;19.54;31.05
76827;BME280;65788;52.284;20.890;2023-05-10T02:29:54;100974.66;;;19.56;31.06
76827;BME280;65788;52.284;20.890;2023-05-10T02:32:21;100972.83;;;19.58;31.03
76827;BME280;65788;52.284;20.890;2023-05-10T02:34:49;100972.75;;;19.54;31.06
76827;BME280;65788;52.284;20.890;2023-05-10T02:37:19;100970.30;;;19.55;31.05
76827;BME280;65788;52.284;20.890;2023-05-10T02:39:47;100971.66;;;19.51;31.11
76827;BME280;65788;52.284;20.890;2023-05-10T02:42:16;100972.20;;;19.51;31.07
76827;BME280;65788;52.284;20.890;2023-05-10T02:44:48;100976.17;;;19.47;31.07
76827;BME280;65788;52.284;20.890;2023-05-10T02:47:15;100978.81;;;19.48;31.06
76827;BME280;65788;52.284;20.890;2023-05-10T02:49:43;100977.81;;;19.51;30.98
76827;BME280;65788;52.284;20.890;2023-05-10T02:52:10;100981.60;;;19.50;31.07
76827;BME280;65788;52.284;20.890;2023-05-10T02:54:39;100981.89;;;19.47;31.16
76827;BME280;65788;52.284;20.890;2023-05-10T02:57:08;100981.52;;;19.50;31.13
76827;BME280;65788;52.284;20.890;2023-05-10T02:59:35;100978.73;;;19.49;31.16
76827;BME280;65788;52.284;20.890;2023-05-10T03:02:03;100983.56;;;19.48;31.16
76827;BME280;65788;52.284;20.890;2023-05-10T03:04:30;100981.16;;;19.47;31.19
76827;BME280;65788;52.284;20.890;2023-05-10T03:06:57;100979.55;;;19.49;31.15
76827;BME280;65788;52.284;20.890;2023-05-10T03:09:24;100983.98;;;19.47;31.17
76827;BME280;65788;52.284;20.890;2023-05-10T03:17:06;100982.94;;;19.42;31.26
76827;BME280;65788;52.284;20.890;2023-05-10T03:19:47;100976.67;;;19.45;31.24
76827;BME280;65788;52.284;20.890;2023-05-10T03:22:14;100980.77;;;19.44;31.27
76827;BME280;65788;52.284;20.890;2023-05-10T03:24:48;100981.12;;;19.43;31.24
76827;BME280;65788;52.284;20.890;2023-05-10T03:27:16;100980.92;;;19.40;31.28
76827;BME280;65788;52.284;20.890;2023-05-10T03:29:43;100981.33;;;19.41;31.26
76827;BME280;65788;52.284;20.890;2023-05-10T03:32:13;100985.13;;;19.38;31.35
76827;BME280;65788;52.284;20.890;2023-05-10T03:34:42;100980.38;;;19.39;31.38
76827;BME280;65788;52.284;20.890;2023-05-10T03:37:12;100980.27;;;19.41;31.33
76827;BME280;65788;52.284;20.890;2023-05-10T03:39:40;100976.20;;;19.41;31.32
76827;BME280;65788;52.284;20.890;2023-05-10T03:42:09;100977.14;;;19.39;31.35
76827;BME280;65788;52.284;20.890;2023-05-10T03:44:38;100982.16;;;19.41;31.33
76827;BME280;65788;52.284;20.890;2023-05-10T03:47:06;100977.23;;;19.43;31.32
76827;BME280;65788;52.284;20.890;2023-05-10T03:49:36;100978.02;;;19.38;31.40
76827;BME280;65788;52.284;20.890;2023-05-10T03:52:03;100974.33;;;19.44;31.34
76827;BME280;65788;52.284;20.890;2023-05-10T03:54:30;100971.88;;;19.54;31.21
76827;BME280;65788;52.284;20.890;2023-05-10T03:56:57;100971.14;;;19.51;31.25
76827;BME280;65788;52.284;20.890;2023-05-10T03:59:26;100969.73;;;19.47;31.32
76827;BME280;65788;52.284;20.890;2023-05-10T04:01:53;100973.52;;;19.46;31.41
76827;BME280;65788;52.284;20.890;2023-05-10T04:04:19;100973.13;;;19.44;31.35
76827;BME280;65788;52.284;20.890;2023-05-10T04:06:47;100973.64;;;19.45;31.34
76827;BME280;65788;52.284;20.890;2023-05-10T04:09:14;100976.21;;;19.44;31.37
76827;BME280;65788;52.284;20.890;2023-05-10T04:11:41;100976.38;;;19.40;31.44
76827;BME280;65788;52.284;20.890;2023-05-10T04:14:08;100976.33;;;19.42;31.67
76827;BME280;65788;52.284;20.890;2023-05-10T04:16:36;100978.86;;;19.45;31.81
76827;BME280;65788;52.284;20.890;2023-05-10T04:19:02;100978.48;;;19.46;31.90
76827;BME280;65788;52.284;20.890;2023-05-10T04:21:30;100983.27;;;19.46;32.01
76827;BME280;65788;52.284;20.890;2023-05-10T04:23:58;100983.66;;;19.46;31.95
76827;BME280;65788;52.284;20.890;2023-05-10T04:26:24;100988.17;;;19.48;31.91
76827;BME280;65788;52.284;20.890;2023-05-10T04:28:54;100983.44;;;19.49;32.12
76827;BME280;65788;52.284;20.890;2023-05-10T04:31:22;100987.53;;;19.46;33.06
76827;BME280;65788;52.284;20.890;2023-05-10T04:33:49;100986.93;;;19.48;33.25
76827;BME280;65788;52.284;20.890;2023-05-10T04:36:16;100991.17;;;19.52;33.23
76827;BME280;65788;52.284;20.890;2023-05-10T04:38:46;100991.77;;;19.53;33.46
76827;BME280;65788;52.284;20.890;2023-05-10T04:41:13;100993.36;;;19.52;33.67
76827;BME280;65788;52.284;20.890;2023-05-10T04:43:39;100994.90;;;19.52;33.92
76827;BME280;65788;52.284;20.890;2023-05-10T04:46:06;100992.50;;;19.53;33.79
76827;BME280;65788;52.284;20.890;2023-05-10T04:48:33;100994.26;;;19.54;33.74
76827;BME280;65788;52.284;20.890;2023-05-10T04:51:00;100995.27;;;19.53;33.63
76827;BME280;65788;52.284;20.890;2023-05-10T04:53:27;100998.02;;;19.55;33.41
76827;BME280;65788;52.284;20.890;2023-05-10T04:55:54;100993.88;;;19.56;33.27
76827;BME280;65788;52.284;20.890;2023-05-10T04:58:21;100993.95;;;19.55;34.00
76827;BME280;65788;52.284;20.890;2023-05-10T05:00:48;100993.45;;;19.57;34.00
76827;BME280;65788;52.284;20.890;2023-05-10T05:03:15;100991.34;;;19.58;33.66
76827;BME280;65788;52.284;20.890;2023-05-10T05:05:43;100990.69;;;19.59;33.80
76827;BME280;65788;52.284;20.890;2023-05-10T05:08:10;100989.96;;;19.61;33.61
76827;BME280;65788;52.284;20.890;2023-05-10T05:10:37;100988.03;;;19.62;33.34
76827;BME280;65788;52.284;20.890;2023-05-10T05:13:04;100986.98;;;19.64;33.10
76827;BME280;65788;52.284;20.890;2023-05-10T05:15:31;100986.85;;;19.66;32.93
76827;BME280;65788;52.284;20.890;2023-05-10T05:17:58;100987.52;;;19.68;32.74
76827;BME280;65788;52.284;20.890;2023-05-10T05:20:25;100988.27;;;19.69;32.63
76827;BME280;65788;52.284;20.890;2023-05-10T05:22:51;100987.92;;;19.70;32.50
76827;BME280;65788;52.284;20.890;2023-05-10T05:25:18;100986.91;;;19.71;32.36
76827;BME280;65788;52.284;20.890;2023-05-10T05:27:45;100987.75;;;19.72;32.29
76827;BME280;65788;52.284;20.890;2023-05-10T05:30:12;100987.34;;;19.72;32.18
76827;BME280;65788;52.284;20.890;2023-05-10T05:32:40;100987.48;;;19.72;32.18
76827;BME280;65788;52.284;20.890;2023-05-10T05:35:08;100987.17;;;19.72;32.15
76827;BME280;65788;52.284;20.890;2023-05-10T05:37:35;100988.27;;;19.72;32.13
76827;BME280;65788;52.284;20.890;2023-05-10T05:40:02;100982.39;;;19.75;32.05
76827;BME280;65788;52.284;20.890;2023-05-10T05:42:30;100986.19;;;19.75;32.00
76827;BME280;65788;52.284;20.890;2023-05-10T05:44:57;100989.41;;;19.79;31.80
76827;BME280;65788;52.284;20.890;2023-05-10T05:47:25;100986.14;;;19.81;31.76
76827;BME280;65788;52.284;20.890;2023-05-10T05:49:52;100990.89;;;19.82;31.62
76827;BME280;65788;52.284;20.890;2023-05-10T05:52:19;100989.73;;;19.83;31.55
76827;BME280;65788;52.284;20.890;2023-05-10T05:54:48;100986.48;;;19.84;31.48
76827;BME280;65788;52.284;20.890;2023-05-10T05:57:15;100983.55;;;19.85;31.42
76827;BME280;65788;52.284;20.890;2023-05-10T05:59:42;100989.58;;;19.86;31.42
76827;BME280;65788;52.284;20.890;2023-05-10T06:02:10;100985.95;;;19.87;31.33
76827;BME280;65788;52.284;20.890;2023-05-10T06:04:38;100987.77;;;19.89;31.23
76827;BME280;65788;52.284;20.890;2023-05-10T06:07:04;100992.88;;;19.92;31.10
76827;BME280;65788;52.284;20.890;2023-05-10T06:09:35;100990.39;;;19.92;31.05
76827;BME280;65788;52.284;20.890;2023-05-10T06:12:02;100990.27;;;19.94;30.99
76827;BME280;65788;52.284;20.890;2023-05-10T06:14:29;100988.17;;;19.95;30.94
76827;BME280;65788;52.284;20.890;2023-05-10T06:16:56;100993.09;;;19.97;30.83
76827;BME280;65788;52.284;20.890;2023-05-10T06:19:23;100993.86;;;19.98;30.80
76827;BME280;65788;52.284;20.890;2023-05-10T06:21:50;100994.59;;;19.98;30.93
76827;BME280;65788;52.284;20.890;2023-05-10T06:24:18;100993.17;;;20.00;30.77
76827;BME280;65788;52.284;20.890;2023-05-10T06:26:44;100994.88;;;20.02;30.71
76827;BME280;65788;52.284;20.890;2023-05-10T06:29:11;100996.95;;;20.04;30.81
76827;BME280;65788;52.284;20.890;2023-05-10T06:31:38;100994.94;;;20.03;31.07
76827;BME280;65788;52.284;20.890;2023-05-10T06:34:05;100994.29;;;20.01;31.44
76827;BME280;65788;52.284;20.890;2023-05-10T06:36:34;100993.61;;;20.04;32.30
76827;BME280;65788;52.284;20.890;2023-05-10T06:39:01;100996.35;;;20.04;32.13
76827;BME280;65788;52.284;20.890;2023-05-10T06:41:28;100999.25;;;20.04;32.38
76827;BME280;65788;52.284;20.890;2023-05-10T06:43:55;101001.14;;;20.07;32.43
76827;BME280;65788;52.284;20.890;2023-05-10T06:46:22;100997.98;;;20.07;32.44
76827;BME280;65788;52.284;20.890;2023-05-10T06:48:49;100996.98;;;20.07;32.40
76827;BME280;65788;52.284;20.890;2023-05-10T06:51:16;100994.13;;;20.08;32.29
76827;BME280;65788;52.284;20.890;2023-05-10T06:53:43;100996.30;;;20.10;32.12
76827;BME280;65788;52.284;20.890;2023-05-10T06:56:10;100993.91;;;20.11;31.97
76827;BME280;65788;52.284;20.890;2023-05-10T06:58:36;100992.38;;;20.13;31.75
76827;BME280;65788;52.284;20.890;2023-05-10T07:01:03;100993.83;;;20.14;31.64
76827;BME280;65788;52.284;20.890;2023-05-10T07:03:31;100992.67;;;20.16;31.55
76827;BME280;65788;52.284;20.890;2023-05-10T07:06:02;100992.16;;;20.18;31.44
76827;BME280;65788;52.284;20.890;2023-05-10T07:08:30;100992.16;;;20.20;31.39
76827;BME280;65788;52.284;20.890;2023-05-10T07:11:00;100993.96;;;20.20;31.29
76827;BME280;65788;52.284;20.890;2023-05-10T07:13:28;100990.53;;;20.21;31.19
76827;BME280;65788;52.284;20.890;2023-05-10T07:15:55;100984.94;;;20.25;31.07
76827;BME280;65788;52.284;20.890;2023-05-10T07:18:22;100985.20;;;20.35;30.64
76827;BME280;65788;52.284;20.890;2023-05-10T07:20:49;100984.83;;;20.42;30.45
76827;BME280;65788;52.284;20.890;2023-05-10T07:23:16;100983.08;;;20.45;30.39
76827;BME280;65788;52.284;20.890;2023-05-10T07:25:49;100981.16;;;20.47;30.37
76827;BME280;65788;52.284;20.890;2023-05-10T07:28:18;100983.16;;;20.48;30.42
76827;BME280;65788;52.284;20.890;2023-05-10T07:30:45;100983.80;;;20.85;33.27
76827;BME280;65788;52.284;20.890;2023-05-10T07:33:12;100985.59;;;20.92;31.53
76827;BME280;65788;52.284;20.890;2023-05-10T07:35:39;100984.71;;;20.98;31.00
76827;BME280;65788;52.284;20.890;2023-05-10T07:38:06;100990.23;;;21.06;30.81
76827;BME280;65788;52.284;20.890;2023-05-10T07:40:33;100983.27;;;21.15;30.64
76827;BME280;65788;52.284;20.890;2023-05-10T07:43:00;100987.27;;;21.23;30.57
76827;BME280;65788;52.284;20.890;2023-05-10T07:45:28;100983.46;;;21.30;30.38
76827;BME280;65788;52.284;20.890;2023-05-10T07:47:55;100983.08;;;21.40;30.48
76827;BME280;65788;52.284;20.890;2023-05-10T07:50:22;100981.78;;;21.51;30.79
76827;BME280;65788;52.284;20.890;2023-05-10T07:52:49;100980.22;;;21.60;30.38
76827;BME280;65788;52.284;20.890;2023-05-10T07:55:16;100977.40;;;21.70;30.21
76827;BME280;65788;52.284;20.890;2023-05-10T07:57:44;100981.63;;;21.80;29.89
76827;BME280;65788;52.284;20.890;2023-05-10T08:00:18;100981.55;;;21.91;29.62
76827;BME280;65788;52.284;20.890;2023-05-10T08:02:45;100975.12;;;21.97;29.66
76827;BME280;65788;52.284;20.890;2023-05-10T08:05:12;100975.88;;;22.00;29.20
76827;BME280;65788;52.284;20.890;2023-05-10T08:07:39;100974.02;;;22.07;29.38
76827;BME280;65788;52.284;20.890;2023-05-10T08:10:07;100970.49;;;22.18;29.17
76827;BME280;65788;52.284;20.890;2023-05-10T08:12:34;100973.15;;;22.18;28.45
76827;BME280;65788;52.284;20.890;2023-05-10T08:15:01;100968.52;;;22.15;28.28
76827;BME280;65788;52.284;20.890;2023-05-10T08:17:28;100971.44;;;22.17;28.56
76827;BME280;65788;52.284;20.890;2023-05-10T08:19:55;100972.09;;;22.21;28.67
76827;BME280;65788;52.284;20.890;2023-05-10T08:22:22;100963.88;;;22.20;28.11
76827;BME280;65788;52.284;20.890;2023-05-10T08:24:52;100959.72;;;22.20;28.07
76827;BME280;65788;52.284;20.890;2023-05-10T08:27:19;100960.66;;;22.25;28.22
76827;BME280;65788;52.284;20.890;2023-05-10T08:29:46;100957.78;;;22.29;28.29
76827;BME280;65788;52.284;20.890;2023-05-10T08:32:13;100964.48;;;22.34;27.90
76827;BME280;65788;52.284;20.890;2023-05-10T08:34:40;100963.52;;;22.27;28.04
76827;BME280;65788;52.284;20.890;2023-05-10T08:37:07;100963.11;;;22.27;27.75
76827;BME280;65788;52.284;20.890;2023-05-10T08:39:34;100960.35;;;22.31;27.63
76827;BME280;65788;52.284;20.890;2023-05-10T08:42:02;100963.29;;;22.42;27.53
76827;BME280;65788;52.284;20.890;2023-05-10T08:44:32;100963.67;;;22.41;27.12
76827;BME280;65788;52.284;20.890;2023-05-10T08:47:02;100966.22;;;22.43;27.57
76827;BME280;65788;52.284;20.890;2023-05-10T08:49:31;100961.09;;;22.41;27.48
76827;BME280;65788;52.284;20.890;2023-05-10T08:51:59;100960.95;;;22.47;27.54
76827;BME280;65788;52.284;20.890;2023-05-10T08:54:27;100962.55;;;22.47;27.27
76827;BME280;65788;52.284;20.890;2023-05-10T08:56:54;100964.46;;;22.56;27.46
76827;BME280;65788;52.284;20.890;2023-05-10T08:59:22;100965.76;;;22.51;27.25
76827;BME280;65788;52.284;20.890;2023-05-10T09:01:49;100962.69;;;22.49;26.70
76827;BME280;65788;52.284;20.890;2023-05-10T09:04:17;100962.77;;;22.45;26.14
76827;BME280;65788;52.284;20.890;2023-05-10T09:06:44;100955.69;;;22.43;26.58
76827;BME280;65788;52.284;20.890;2023-05-10T09:09:10;100952.29;;;22.43;27.46
76827;BME280;65788;52.284;20.890;2023-05-10T09:11:38;100950.63;;;22.45;27.25
76827;BME280;65788;52.284;20.890;2023-05-10T09:14:06;100939.36;;;22.47;27.47
76827;BME280;65788;52.284;20.890;2023-05-10T09:16:33;100947.20;;;22.57;26.95
76827;BME280;65788;52.284;20.890;2023-05-10T09:19:00;100948.29;;;22.60;26.46
76827;BME280;65788;52.284;20.890;2023-05-10T09:21:27;100942.71;;;22.67;26.31
76827;BME280;65788;52.284;20.890;2023-05-10T09:23:56;100939.30;;;22.74;26.42
76827;BME280;65788;52.284;20.890;2023-05-10T09:26:23;100936.99;;;22.71;26.29
76827;BME280;65788;52.284;20.890;2023-05-10T09:28:51;100942.16;;;22.67;26.27
76827;BME280;65788;52.284;20.890;2023-05-10T09:31:19;100935.31;;;22.66;26.30
76827;BME280;65788;52.284;20.890;2023-05-10T09:33:47;100933.71;;;22.74;26.42
76827;BME280;65788;52.284;20.890;2023-05-10T09:36:16;100926.98;;;22.73;26.40
76827;BME280;65788;52.284;20.890;2023-05-10T09:41:21;100940.12;;;22.77;26.48
76827;BME280;65788;52.284;20.890;2023-05-10T09:43:48;100940.50;;;22.78;26.48
76827;BME280;65788;52.284;20.890;2023-05-10T09:46:16;100938.16;;;22.89;27.00
76827;BME280;65788;52.284;20.890;2023-05-10T09:48:45;100935.17;;;22.85;26.72
76827;BME280;65788;52.284;20.890;2023-05-10T09:51:19;100936.27;;;22.83;26.61
76827;BME280;65788;52.284;20.890;2023-05-10T09:53:47;100928.94;;;22.82;26.64
76827;BME280;65788;52.284;20.890;2023-05-10T09:56:15;100929.26;;;22.87;26.45
76827;BME280;65788;52.284;20.890;2023-05-10T09:59:02;100931.78;;;22.91;26.87
76827;BME280;65788;52.284;20.890;2023-05-10T10:01:29;100930.58;;;22.92;26.19
76827;BME280;65788;52.284;20.890;2023-05-10T10:06:25;100921.27;;;22.99;26.38
76827;BME280;65788;52.284;20.890;2023-05-10T10:08:53;100919.08;;;22.94;26.57
76827;BME280;65788;52.284;20.890;2023-05-10T10:11:23;100908.64;;;22.92;26.23
76827;BME280;65788;52.284;20.890;2023-05-10T10:13:50;100913.34;;;22.91;27.04
76827;BME280;65788;52.284;20.890;2023-05-10T10:16:17;100913.27;;;23.02;26.43
76827;BME280;65788;52.284;20.890;2023-05-10T10:18:45;100911.30;;;23.09;26.46
76827;BME280;65788;52.284;20.890;2023-05-10T10:21:13;100915.33;;;23.04;26.01
76827;BME280;65788;52.284;20.890;2023-05-10T10:23:40;100911.17;;;23.01;26.02
76827;BME280;65788;52.284;20.890;2023-05-10T10:26:07;100905.30;;;23.04;26.08
76827;BME280;65788;52.284;20.890;2023-05-10T10:34:05;100895.83;;;23.03;26.09
76827;BME280;65788;52.284;20.890;2023-05-10T10:36:40;100890.98;;;22.97;26.53
76827;BME280;65788;52.284;20.890;2023-05-10T10:39:10;100892.45;;;22.98;26.25
76827;BME280;65788;52.284;20.890;2023-05-10T10:41:38;100891.70;;;22.93;26.07
76827;BME280;65788;52.284;20.890;2023-05-10T10:49:43;100903.39;;;22.73;26.44
76827;BME280;65788;52.284;20.890;2023-05-10T10:52:39;100890.44;;;22.71;26.19
76827;BME280;65788;52.284;20.890;2023-05-10T10:55:13;100884.85;;;22.68;25.90
76827;BME280;65788;52.284;20.890;2023-05-10T11:00:24;100879.00;;;22.65;26.09
76827;BME280;65788;52.284;20.890;2023-05-10T11:07:57;100877.00;;;22.58;26.79
76827;BME280;65788;52.284;20.890;2023-05-10T11:10:26;100880.52;;;22.62;26.90
76827;BME280;65788;52.284;20.890;2023-05-10T11:15:35;100873.88;;;22.79;26.83
76827;BME280;65788;52.284;20.890;2023-05-10T11:18:19;100873.60;;;22.75;26.51
76827;BME280;65788;52.284;20.890;2023-05-10T11:20:51;100867.04;;;22.76;26.55
76827;BME280;65788;52.284;20.890;2023-05-10T11:23:18;100867.63;;;22.79;26.45
76827;BME280;65788;52.284;20.890;2023-05-10T11:25:47;100866.73;;;22.79;26.42
76827;BME280;65788;52.284;20.890;2023-05-10T11:28:17;100862.85;;;22.87;26.20
76827;BME280;65788;52.284;20.890;2023-05-10T11:30:45;100858.16;;;22.85;26.41
76827;BME280;65788;52.284;20.890;2023-05-10T11:33:17;100857.55;;;22.88;25.81
76827;BME280;65788;52.284;20.890;2023-05-10T11:35:45;100852.42;;;22.84;26.13
76827;BME280;65788;52.284;20.890;2023-05-10T11:38:13;100862.77;;;22.84;25.76
76827;BME280;65788;52.284;20.890;2023-05-10T11:40:40;100855.80;;;22.85;25.61
76827;BME280;65788;52.284;20.890;2023-05-10T11:43:08;100862.84;;;22.87;25.74
76827;BME280;65788;52.284;20.890;2023-05-10T11:45:37;100856.09;;;22.89;25.69
76827;BME280;65788;52.284;20.890;2023-05-10T11:48:04;100848.19;;;22.90;25.65
76827;BME280;65788;52.284;20.890;2023-05-10T11:50:32;100855.02;;;22.89;25.83
76827;BME280;65788;52.284;20.890;2023-05-10T11:52:59;100853.47;;;22.85;25.85
76827;BME280;65788;52.284;20.890;2023-05-10T11:55:26;100845.80;;;22.90;25.93
76827;BME280;65788;52.284;20.890;2023-05-10T11:57:59;100845.01;;;22.90;25.89
76827;BME280;65788;52.284;20.890;2023-05-10T12:00:26;100848.32;;;22.89;25.71
76827;BME280;65788;52.284;20.890;2023-05-10T12:02:54;100850.73;;;22.89;25.52
76827;BME280;65788;52.284;20.890;2023-05-10T12:05:21;100861.36;;;22.93;25.73
76827;BME280;65788;52.284;20.890;2023-05-10T12:07:48;100848.52;;;22.90;26.62
76827;BME280;65788;52.284;20.890;2023-05-10T12:10:25;100839.77;;;22.86;26.46
76827;BME280;65788;52.284;20.890;2023-05-10T12:12:53;100846.14;;;22.91;26.46
76827;BME280;65788;52.284;20.890;2023-05-10T12:15:24;100844.07;;;22.92;26.30
76827;BME280;65788;52.284;20.890;2023-05-10T12:17:51;100855.09;;;22.80;25.99
76827;BME280;65788;52.284;20.890;2023-05-10T12:20:23;100839.95;;;22.69;26.42
76827;BME280;65788;52.284;20.890;2023-05-10T12:22:52;100841.96;;;22.63;26.45
76827;BME280;65788;52.284;20.890;2023-05-10T12:25:22;100849.61;;;22.58;26.23
76827;BME280;65788;52.284;20.890;2023-05-10T12:27:54;100849.60;;;22.58;26.12
76827;BME280;65788;52.284;20.890;2023-05-10T12:30:26;100844.75;;;22.56;26.08
76827;BME280;65788;52.284;20.890;2023-05-10T12:33:09;100834.98;;;22.52;25.87
76827;BME280;65788;52.284;20.890;2023-05-10T12:35:50;100836.89;;;22.49;26.06
76827;BME280;65788;52.284;20.890;2023-05-10T12:38:35;100843.18;;;22.47;25.83
76827;BME280;65788;52.284;20.890;2023-05-10T12:41:07;100839.04;;;22.42;26.15
76827;BME280;65788;52.284;20.890;2023-05-10T12:43:35;100838.57;;;22.37;26.11
76827;BME280;65788;52.284;20.890;2023-05-10T12:46:13;100840.75;;;22.31;26.32
76827;BME280;65788;52.284;20.890;2023-05-10T12:48:40;100848.80;;;22.25;26.19
76827;BME280;65788;52.284;20.890;2023-05-10T12:51:08;100838.77;;;22.21;26.03
76827;BME280;65788;52.284;20.890;2023-05-10T12:53:39;100838.35;;;22.24;25.86
76827;BME280;65788;52.284;20.890;2023-05-10T12:56:06;100833.81;;;22.43;26.17
76827;BME280;65788;52.284;20.890;2023-05-10T12:58:34;100822.73;;;22.90;25.97
76827;BME280;65788;52.284;20.890;2023-05-10T13:01:01;100813.58;;;22.96;25.04
76827;BME280;65788;52.284;20.890;2023-05-10T13:03:28;100815.92;;;23.00;24.87
76827;BME280;65788;52.284;20.890;2023-05-10T13:05:54;100817.09;;;22.99;24.84
76827;BME280;65788;52.284;20.890;2023-05-10T13:08:21;100819.92;;;22.97;24.91
76827;BME280;65788;52.284;20.890;2023-05-10T13:10:48;100818.48;;;23.01;24.98
76827;BME280;65788;52.284;20.890;2023-05-10T13:13:15;100821.64;;;23.05;25.24
76827;BME280;65788;52.284;20.890;2023-05-10T13:15:42;100817.11;;;23.06;25.28
76827;BME280;65788;52.284;20.890;2023-05-10T13:18:08;100819.57;;;23.00;25.28
76827;BME280;65788;52.284;20.890;2023-05-10T13:20:35;100819.02;;;22.97;25.18
76827;BME280;65788;52.284;20.890;2023-05-10T13:23:02;100818.57;;;22.95;25.24
76827;BME280;65788;52.284;20.890;2023-05-10T13:25:29;100820.09;;;22.93;25.43
76827;BME280;65788;52.284;20.890;2023-05-10T13:27:56;100811.53;;;22.94;25.39
76827;BME280;65788;52.284;20.890;2023-05-10T13:30:23;100811.65;;;22.92;25.54
76827;BME280;65788;52.284;20.890;2023-05-10T13:32:50;100810.27;;;22.91;25.38